Time;durP1;ratioP1;P1;durP2;ratioP2;P2;SDS_P1;SDS_P2;PMS_P1;PMS_P2;Temp;Humidity;BMP_temperature;BMP_pressure;BME280_temperature;BME280_humidity;BME280_pressure;Samples;Min_cycle;Max_cycle;Signal;HPM_P1;HPM_P2
2023/03/04 00:00:52;;;;;;;26.90;15.50;;;;;;;-0.71;87.43;95655.67;106658;1271;24196;-70
2023/03/04 00:03:21;;;;;;;28.00;15.70;;;;;;;-0.63;87.10;95657.08;106729;1275;22518;-70
2023/03/04 00:05:50;;;;;;;26.30;14.60;;;;;;;-0.61;86.76;95662.48;106683;1275;23018;-69
2023/03/04 00:08:18;;;;;;;29.60;15.70;;;;;;;-0.59;86.76;95663.23;106668;1275;25457;-70
2023/03/04 00:10:46;;;;;;;25.80;14.80;;;;;;;-0.62;86.23;95662.45;106700;1275;25255;-70
2023/03/04 00:13:15;;;;;;;26.10;14.60;;;;;;;-0.66;86.17;95667.04;106564;1269;23042;-70
2023/03/04 00:15:43;;;;;;;25.80;14.10;;;;;;;-0.64;86.42;95661.03;106747;1275;22524;-69
2023/03/04 00:18:11;;;;;;;27.50;15.10;;;;;;;-0.57;86.83;95666.39;106824;1275;25268;-70
2023/03/04 00:20:40;;;;;;;23.40;15.00;;;;;;;-0.52;86.67;95661.70;106775;1275;22524;-70
2023/03/04 00:23:08;;;;;;;22.90;13.50;;;;;;;-0.52;86.43;95660.48;106673;1275;23339;-70
2023/03/04 00:25:36;;;;;;;20.50;13.10;;;;;;;-0.54;86.11;95659.89;106681;1275;23006;-70
2023/03/04 00:28:04;;;;;;;25.10;14.50;;;;;;;-0.54;86.21;95653.34;106737;1275;22635;-70
2023/03/04 00:30:32;;;;;;;23.80;13.20;;;;;;;-0.55;86.06;95652.96;106673;1275;22514;-70
2023/03/04 00:33:00;;;;;;;19.70;11.10;;;;;;;-0.60;85.76;95652.84;106711;1275;22534;-70
2023/03/04 00:35:28;;;;;;;20.70;13.10;;;;;;;-0.75;85.12;95649.52;106831;1266;22652;-70
2023/03/04 00:37:57;;;;;;;22.10;12.90;;;;;;;-0.83;85.58;95648.44;106836;1275;24349;-70
2023/03/04 00:40:26;;;;;;;24.90;13.10;;;;;;;-0.94;85.43;95645.40;106720;1275;23071;-70
2023/03/04 00:42:54;;;;;;;22.40;12.70;;;;;;;-1.07;85.36;95644.72;106708;1275;22791;-70
2023/03/04 00:45:22;;;;;;;19.20;11.10;;;;;;;-1.14;85.58;95639.16;106756;1275;23004;-70
2023/03/04 00:47:50;;;;;;;21.80;12.60;;;;;;;-1.17;85.63;95647.20;106904;1275;22801;-70
2023/03/04 00:50:18;;;;;;;24.70;13.10;;;;;;;-1.16;85.90;95645.01;106682;1275;25338;-70
2023/03/04 00:52:47;;;;;;;23.20;13.00;;;;;;;-1.15;85.89;95641.92;106682;1275;22580;-70
2023/03/04 00:55:15;;;;;;;21.80;12.50;;;;;;;-1.15;85.79;95638.47;106672;1273;25431;-70
2023/03/04 00:57:43;;;;;;;21.60;12.30;;;;;;;-1.17;85.49;95637.38;106735;1275;22517;-70
2023/03/04 01:00:12;;;;;;;16.70;10.80;;;;;;;-1.22;85.22;95641.39;106720;1275;24342;-70
2023/03/04 01:02:40;;;;;;;21.90;12.20;;;;;;;-1.32;84.83;95636.28;106721;1275;22511;-70
2023/03/04 01:05:09;;;;;;;19.70;11.60;;;;;;;-1.37;84.94;95636.33;106707;1275;22556;-68
2023/03/04 01:07:37;;;;;;;23.30;12.70;;;;;;;-1.38;85.26;95634.91;106797;1275;22533;-68
2023/03/04 01:10:09;;;;;;;18.00;9.90;;;;;;;-1.38;85.81;95631.98;106822;1275;24162;-68
2023/03/04 01:12:39;;;;;;;19.30;10.50;;;;;;;-1.41;85.65;95629.64;106690;1275;22521;-68
2023/03/04 01:15:09;;;;;;;21.30;11.60;;;;;;;-1.47;85.43;95626.36;106765;1275;22634;-68
2023/03/04 01:17:40;;;;;;;18.30;10.40;;;;;;;-1.50;85.46;95625.77;106695;1275;25396;-67
2023/03/04 01:20:09;;;;;;;22.40;10.60;;;;;;;-1.51;85.44;95625.92;106668;1275;25246;-68
2023/03/04 01:22:37;;;;;;;22.30;12.40;;;;;;;-1.54;85.69;95624.45;106722;1275;22778;-68
2023/03/04 01:25:08;;;;;;;26.10;14.20;;;;;;;-1.59;85.94;95624.30;106699;1275;23005;-68
2023/03/04 01:27:36;;;;;;;34.70;17.20;;;;;;;-1.66;86.79;95623.42;106636;1275;24250;-68
2023/03/04 01:30:05;;;;;;;28.50;15.40;;;;;;;-1.73;87.38;95623.21;106705;1275;22636;-68
2023/03/04 01:32:34;;;;;;;30.20;15.00;;;;;;;-1.76;86.79;95621.07;106844;1275;25204;-68
2023/03/04 01:35:02;;;;;;;30.20;15.80;;;;;;;-1.72;86.68;95618.23;106692;1275;25386;-68
2023/03/04 01:37:30;;;;;;;29.40;15.60;;;;;;;-1.67;86.55;95616.65;106654;1275;24191;-69
2023/03/04 01:39:58;;;;;;;30.50;16.10;;;;;;;-1.64;86.45;95612.25;106570;1275;24260;-68
2023/03/04 01:42:30;;;;;;;27.80;15.00;;;;;;;-1.59;86.71;95611.38;106948;1275;22546;-68
2023/03/04 01:45:00;;;;;;;26.20;13.40;;;;;;;-1.59;86.53;95607.23;106924;1275;22518;-68
2023/03/04 01:47:31;;;;;;;26.10;14.50;;;;;;;-1.57;86.54;95609.02;106741;1275;22575;-68
2023/03/04 01:50:03;;;;;;;29.50;14.40;;;;;;;-1.51;86.71;95600.73;106559;1275;25343;-69
2023/03/04 01:52:31;;;;;;;24.30;13.90;;;;;;;-1.47;86.65;95597.20;106822;1275;25348;-69
2023/03/04 01:54:59;;;;;;;25.40;14.90;;;;;;;-1.40;86.96;95594.98;106577;1275;25431;-69
2023/03/04 01:57:27;;;;;;;24.90;13.60;;;;;;;-1.35;86.64;95592.38;106689;1275;22524;-69
2023/03/04 02:00:21;;;;;;;24.80;13.30;;;;;;;-1.44;85.53;95590.89;106625;1275;22699;-68
2023/03/04 02:02:57;;;;;;;19.50;11.90;;;;;;;-1.53;85.83;95596.03;106663;1275;22623;-67
2023/03/04 02:05:27;;;;;;;20.90;11.60;;;;;;;-1.45;86.70;95590.70;106583;1253;22539;-69
2023/03/04 02:07:57;;;;;;;20.60;11.50;;;;;;;-1.33;87.07;95588.29;106960;1275;25332;-68
2023/03/04 02:10:26;;;;;;;22.50;11.80;;;;;;;-1.33;85.98;95589.15;106790;1272;25428;-69
2023/03/04 02:12:55;;;;;;;20.30;11.60;;;;;;;-1.35;86.08;95589.25;106743;1275;24326;-69
2023/03/04 02:15:24;;;;;;;24.50;12.80;;;;;;;-1.39;85.71;95584.84;106696;1275;23283;-69
2023/03/04 02:17:52;;;;;;;17.60;10.20;;;;;;;-1.42;85.55;95583.03;107008;1275;22797;-68
2023/03/04 02:20:31;;;;;;;15.90;9.40;;;;;;;-1.42;85.74;95579.56;107059;1275;22668;-69
2023/03/04 02:23:08;;;;;;;16.50;9.60;;;;;;;-1.47;85.68;95574.09;107035;1275;22552;-69
2023/03/04 02:25:43;;;;;;;19.50;10.90;;;;;;;-1.51;85.64;95572.10;106739;1275;24270;-69
2023/03/04 02:28:12;;;;;;;18.70;11.20;;;;;;;-1.50;85.83;95568.65;107041;1275;24242;-68
2023/03/04 02:30:40;;;;;;;20.30;11.40;;;;;;;-1.48;86.14;95568.72;106981;1275;24259;-69
2023/03/04 02:33:17;;;;;;;17.20;10.20;;;;;;;-1.46;86.26;95568.94;106685;1275;22641;-69
2023/03/04 02:35:46;;;;;;;18.30;10.70;;;;;;;-1.50;85.60;95564.70;106638;1274;22615;-69
2023/03/04 02:38:14;;;;;;;20.50;10.80;;;;;;;-1.58;85.67;95563.46;106652;1275;25219;-69
2023/03/04 02:40:47;;;;;;;18.20;10.70;;;;;;;-1.60;85.85;95557.52;106608;1275;26598;-69
2023/03/04 02:43:16;;;;;;;20.90;11.90;;;;;;;-1.61;86.11;95561.30;106737;1275;22513;-69
2023/03/04 02:45:49;;;;;;;16.60;9.80;;;;;;;-1.64;85.94;95560.72;106678;1275;24202;-69
2023/03/04 02:48:20;;;;;;;17.70;9.40;;;;;;;-1.70;85.69;95565.55;106745;1275;25465;-69
2023/03/04 02:50:51;;;;;;;17.70;10.60;;;;;;;-1.79;85.88;95568.04;106718;1275;24199;-69
2023/03/04 02:53:20;;;;;;;21.70;10.90;;;;;;;-1.88;85.73;95558.98;106728;1275;22628;-69
2023/03/04 02:55:49;;;;;;;19.30;9.60;;;;;;;-1.87;86.13;95560.23;106727;1275;22731;-70
2023/03/04 02:58:18;;;;;;;15.70;9.50;;;;;;;-1.91;86.34;95557.19;106734;1275;24231;-69
2023/03/04 03:00:47;;;;;;;17.70;9.20;;;;;;;-1.95;86.39;95561.72;106680;1275;24195;-69
2023/03/04 03:03:15;;;;;;;23.30;11.80;;;;;;;-2.03;86.62;95562.17;106686;1275;22860;-69
2023/03/04 03:05:44;;;;;;;20.70;9.70;;;;;;;-2.12;86.34;95562.45;106588;1275;24270;-69
2023/03/04 03:08:12;;;;;;;21.40;10.50;;;;;;;-2.14;86.41;95555.48;106722;1275;24375;-69
2023/03/04 03:10:41;;;;;;;17.50;10.10;;;;;;;-2.14;86.55;95559.45;106707;1275;25396;-68
2023/03/04 03:13:09;;;;;;;18.60;11.10;;;;;;;-2.14;86.44;95558.05;106704;1275;22510;-69
2023/03/04 03:15:41;;;;;;;19.50;10.50;;;;;;;-2.13;86.49;95556.02;106662;1275;22514;-69
2023/03/04 03:18:11;;;;;;;19.40;10.10;;;;;;;-2.12;86.70;95551.05;107020;1275;22517;-69
2023/03/04 03:20:39;;;;;;;13.80;9.10;;;;;;;-2.14;86.29;95550.82;106962;1275;22626;-69
2023/03/04 03:23:08;;;;;;;19.10;10.20;;;;;;;-2.17;86.10;95548.16;106587;1275;24259;-69
2023/03/04 03:25:36;;;;;;;17.70;9.90;;;;;;;-2.17;86.23;95550.58;106596;1275;22557;-69
2023/03/04 03:28:05;;;;;;;21.30;10.90;;;;;;;-2.18;86.35;95550.73;106756;1275;24208;-69
2023/03/04 03:30:34;;;;;;;18.60;11.00;;;;;;;-2.20;86.31;95544.98;106632;1275;22507;-69
2023/03/04 03:33:04;;;;;;;20.30;10.20;;;;;;;-2.20;86.37;95540.32;106766;1275;22564;-69
2023/03/04 03:35:33;;;;;;;19.50;11.20;;;;;;;-2.22;86.24;95539.56;106703;1275;24250;-69
2023/03/04 03:38:01;;;;;;;25.60;14.30;;;;;;;-2.23;86.17;95542.81;106580;1275;24347;-69
2023/03/04 03:40:29;;;;;;;30.10;15.40;;;;;;;-2.22;86.32;95537.34;106759;1275;23915;-69
2023/03/04 03:42:57;;;;;;;32.90;17.70;;;;;;;-2.25;86.62;95535.00;106714;1275;22515;-69
2023/03/04 03:45:25;;;;;;;32.90;16.10;;;;;;;-2.30;87.04;95538.48;106721;1275;23731;-69
2023/03/04 03:47:54;;;;;;;32.40;19.00;;;;;;;-2.32;87.31;95538.73;106693;1275;22521;-69
2023/03/04 03:50:22;;;;;;;27.60;15.00;;;;;;;-2.31;87.25;95538.64;106707;1275;22517;-69
2023/03/04 03:52:50;;;;;;;24.10;12.70;;;;;;;-2.24;87.41;95536.08;106661;1275;24233;-69
2023/03/04 03:55:18;;;;;;;23.00;12.60;;;;;;;-2.14;87.39;95541.70;106687;1275;25955;-69
2023/03/04 03:57:47;;;;;;;23.10;12.20;;;;;;;-2.08;87.28;95538.27;106740;1275;24055;-69
2023/03/04 04:00:16;;;;;;;24.20;12.20;;;;;;;-1.99;87.41;95541.44;106763;1275;22545;-69
2023/03/04 04:02:44;;;;;;;21.00;12.00;;;;;;;-1.98;87.02;95539.22;106761;1275;24364;-69
2023/03/04 04:05:14;;;;;;;20.40;12.40;;;;;;;-1.97;86.84;95537.70;106695;1275;25377;-69
2023/03/04 04:07:42;;;;;;;28.60;13.60;;;;;;;-2.04;86.35;95534.90;106566;1275;25392;-70
2023/03/04 04:10:11;;;;;;;23.40;11.10;;;;;;;-2.05;86.67;95532.65;106703;1275;22518;-69
2023/03/04 04:12:39;;;;;;;23.00;12.10;;;;;;;-2.07;86.73;95533.98;106740;1275;24343;-69
2023/03/04 04:15:11;;;;;;;24.00;13.30;;;;;;;-1.98;87.40;95531.13;106613;1275;22515;-69
2023/03/04 04:17:39;;;;;;;23.90;12.10;;;;;;;-1.90;87.33;95529.79;106657;1275;25447;-69
2023/03/04 04:20:08;;;;;;;24.70;13.50;;;;;;;-1.89;86.83;95524.30;106697;1275;22540;-69
2023/03/04 04:22:36;;;;;;;25.10;12.30;;;;;;;-1.86;87.12;95519.89;106861;1275;25316;-69
2023/03/04 04:25:07;;;;;;;27.00;12.90;;;;;;;-1.81;86.95;95519.37;106912;1275;22553;-69
2023/03/04 04:27:35;;;;;;;20.70;11.60;;;;;;;-1.90;85.93;95522.73;106828;1275;22633;-69
2023/03/04 04:30:05;;;;;;;20.10;11.50;;;;;;;-1.94;86.15;95523.84;106720;1275;22521;-69
2023/03/04 04:32:33;;;;;;;24.00;12.30;;;;;;;-2.02;85.99;95521.01;106602;1275;25268;-69
2023/03/04 04:35:01;;;;;;;23.50;11.60;;;;;;;-2.11;85.92;95525.42;106680;1275;25533;-70
2023/03/04 04:37:29;;;;;;;16.40;9.60;;;;;;;-2.08;86.63;95525.32;106706;1275;22515;-69
2023/03/04 04:39:57;;;;;;;18.50;10.40;;;;;;;-2.12;86.34;95530.02;106738;1275;22633;-69
2023/03/04 04:42:26;;;;;;;18.30;10.20;;;;;;;-2.10;86.70;95529.91;106684;1275;22767;-69
2023/03/04 04:44:56;;;;;;;19.60;11.60;;;;;;;-2.14;86.41;95529.45;106726;1275;25268;-69
2023/03/04 04:47:24;;;;;;;22.80;12.80;;;;;;;-2.15;86.50;95530.45;106708;1275;22525;-69
2023/03/04 04:49:52;;;;;;;21.70;12.10;;;;;;;-2.16;86.54;95526.31;106650;1275;23304;-69
2023/03/04 04:52:20;;;;;;;19.90;11.00;;;;;;;-2.15;86.41;95523.22;106718;1275;22674;-69
2023/03/04 04:54:48;;;;;;;16.00;10.00;;;;;;;-2.19;86.13;95525.55;106712;1275;22749;-69
2023/03/04 04:57:16;;;;;;;17.50;9.60;;;;;;;-2.24;86.07;95527.64;106689;1275;22528;-69
2023/03/04 04:59:44;;;;;;;17.30;9.90;;;;;;;-2.32;85.75;95531.36;106701;1275;22572;-69
2023/03/04 05:02:12;;;;;;;14.40;7.70;;;;;;;-2.37;85.83;95535.67;106723;1275;22635;-69
2023/03/04 05:04:40;;;;;;;23.00;10.00;;;;;;;-2.45;85.86;95536.31;106645;1275;23874;-69
2023/03/04 05:07:08;;;;;;;20.20;11.10;;;;;;;-2.48;86.06;95533.30;107000;1275;25246;-70
2023/03/04 05:09:36;;;;;;;19.50;10.10;;;;;;;-2.48;86.17;95537.94;107048;1275;25487;-69
2023/03/04 05:12:05;;;;;;;12.80;8.00;;;;;;;-2.54;86.00;95537.77;106926;1275;22513;-69
2023/03/04 05:14:33;;;;;;;13.10;7.60;;;;;;;-2.55;85.90;95541.67;106709;1275;24362;-69
2023/03/04 05:17:01;;;;;;;63.50;32.80;;;;;;;-2.60;85.76;95547.38;106696;1275;25386;-69
2023/03/04 05:19:29;;;;;;;30.00;14.50;;;;;;;-2.67;86.07;95542.19;106620;1275;25445;-69
2023/03/04 05:21:57;;;;;;;21.50;11.20;;;;;;;-2.64;86.23;95541.41;106706;1275;25414;-70
2023/03/04 05:24:25;;;;;;;23.30;12.40;;;;;;;-2.58;86.43;95538.48;106926;1275;22521;-69
2023/03/04 05:26:53;;;;;;;22.10;11.90;;;;;;;-2.50;86.58;95537.73;107004;1257;22623;-68
2023/03/04 05:29:22;;;;;;;30.00;14.30;;;;;;;-2.44;86.55;95533.41;106683;1275;22518;-69
2023/03/04 05:31:50;;;;;;;33.60;17.90;;;;;;;-2.41;86.85;95531.94;107025;1275;22589;-69
2023/03/04 05:34:18;;;;;;;22.80;13.50;;;;;;;-2.41;86.56;95533.16;106834;1275;22650;-69
2023/03/04 05:36:46;;;;;;;26.30;14.10;;;;;;;-2.35;86.91;95534.38;106682;1275;22668;-69
2023/03/04 05:39:15;;;;;;;36.50;18.20;;;;;;;-2.31;87.57;95530.19;106674;1275;22513;-69
2023/03/04 05:41:43;;;;;;;24.00;13.30;;;;;;;-2.22;87.48;95526.98;106683;1275;22513;-69
2023/03/04 05:44:11;;;;;;;21.30;12.10;;;;;;;-2.14;87.02;95530.16;106780;1275;22507;-70
2023/03/04 05:46:39;;;;;;;39.80;19.60;;;;;;;-2.12;87.03;95526.07;106855;1275;23014;-69
2023/03/04 05:49:07;;;;;;;25.30;14.20;;;;;;;-1.97;87.74;95525.31;106712;1275;25385;-69
2023/03/04 05:51:35;;;;;;;70.80;32.00;;;;;;;-1.92;87.12;95526.81;106644;1275;24199;-69
2023/03/04 05:54:03;;;;;;;93.10;46.20;;;;;;;-1.92;86.83;95528.02;106664;1275;22614;-69
2023/03/04 05:56:32;;;;;;;126.40;61.10;;;;;;;-1.92;86.81;95522.52;106701;1275;22624;-69
2023/03/04 05:59:00;;;;;;;107.70;52.30;;;;;;;-1.84;87.28;95524.11;106533;1275;25468;-69
2023/03/04 06:01:30;;;;;;;121.90;62.90;;;;;;;-1.70;86.99;95522.08;106777;1275;22546;-69
2023/03/04 06:03:58;;;;;;;113.10;61.10;;;;;;;-1.57;86.70;95518.63;106979;1272;24237;-69
2023/03/04 06:06:26;;;;;;;142.30;71.40;;;;;;;-1.41;86.85;95517.84;106715;1275;24061;-69
2023/03/04 06:08:54;;;;;;;120.40;58.40;;;;;;;-1.31;86.35;95519.13;106782;1275;22537;-69
2023/03/04 06:11:22;;;;;;;108.70;54.20;;;;;;;-1.20;86.60;95519.76;106711;1275;22673;-69
2023/03/04 06:13:50;;;;;;;61.90;31.40;;;;;;;-1.04;86.64;95515.66;106704;1275;22625;-69
2023/03/04 06:16:19;;;;;;;67.20;35.80;;;;;;;-1.00;85.74;95515.75;106672;1275;22508;-69
2023/03/04 06:18:47;;;;;;;59.40;31.20;;;;;;;-0.95;85.86;95515.54;106723;1275;25601;-69
2023/03/04 06:21:15;;;;;;;68.30;35.20;;;;;;;-0.86;85.41;95515.73;106715;1275;23137;-69
2023/03/04 06:23:44;;;;;;;79.60;38.70;;;;;;;-0.77;85.61;95517.88;106699;1275;24199;-69
2023/03/04 06:26:14;;;;;;;63.50;34.60;;;;;;;-0.68;85.59;95515.13;106672;1275;22659;-69
2023/03/04 06:28:43;;;;;;;58.20;30.10;;;;;;;-0.64;85.38;95518.69;106693;1275;24220;-69
2023/03/04 06:31:11;;;;;;;42.70;25.50;;;;;;;-0.57;85.48;95515.05;106788;1275;22586;-69
2023/03/04 06:33:40;;;;;;;34.70;20.60;;;;;;;-0.50;85.07;95515.38;106787;1275;24313;-69
2023/03/04 06:36:08;;;;;;;28.10;18.20;;;;;;;-0.45;84.56;95513.92;106722;1275;22812;-69
2023/03/04 06:38:37;;;;;;;45.40;28.50;;;;;;;-0.41;84.16;95512.45;106582;1275;24961;-69
2023/03/04 06:41:10;;;;;;;49.90;26.70;;;;;;;-0.40;84.02;95510.56;106690;1275;24211;-69
2023/03/04 06:43:39;;;;;;;42.50;22.20;;;;;;;-0.31;84.16;95511.30;106706;1275;24246;-69
2023/03/04 06:46:08;;;;;;;31.10;18.40;;;;;;;-0.18;84.30;95511.05;106752;1275;22778;-69
2023/03/04 06:48:36;;;;;;;24.20;14.60;;;;;;;-0.07;84.03;95509.20;106670;1275;23871;-69
2023/03/04 06:51:09;;;;;;;21.50;12.40;;;;;;;0.03;83.34;95510.46;106793;1275;22519;-69
2023/03/04 06:53:39;;;;;;;23.30;12.80;;;;;;;0.14;83.33;95509.81;106713;1272;22559;-69
2023/03/04 06:56:10;;;;;;;26.90;14.10;;;;;;;0.24;83.63;95508.27;106577;1260;25550;-69
2023/03/04 06:58:38;;;;;;;21.30;11.90;;;;;;;0.35;83.36;95508.15;106684;1275;24227;-69
2023/03/04 07:01:24;;;;;;;19.00;11.50;;;;;;;0.47;83.37;95513.23;106779;1275;24364;-70
2023/03/04 07:03:53;;;;;;;15.20;9.00;;;;;;;0.60;82.53;95511.73;106852;1275;22644;-69
2023/03/04 07:06:24;;;;;;;16.60;10.70;;;;;;;0.69;81.54;95506.52;106728;1275;24377;-69
2023/03/04 07:08:53;;;;;;;19.90;12.10;;;;;;;0.80;81.33;95506.73;106715;1275;25551;-69
2023/03/04 07:11:22;;;;;;;35.30;18.80;;;;;;;0.90;80.19;95503.27;106749;1275;24346;-69
2023/03/04 07:13:51;;;;;;;33.50;21.20;;;;;;;1.03;80.41;95498.97;106739;1275;24037;-69
2023/03/04 07:16:21;;;;;;;44.50;26.30;;;;;;;1.16;80.25;95498.33;106808;1275;23876;-69
2023/03/04 07:18:49;;;;;;;41.10;25.10;;;;;;;1.28;79.02;95491.22;106735;1275;22853;-69
2023/03/04 07:21:18;;;;;;;37.00;21.20;;;;;;;1.41;79.48;95485.69;106675;1275;24403;-69
2023/03/04 07:23:46;;;;;;;27.40;16.60;;;;;;;1.56;79.53;95481.23;106714;1275;25497;-69
2023/03/04 07:26:15;;;;;;;23.30;14.40;;;;;;;1.70;78.40;95479.69;106706;1254;25621;-69
2023/03/04 07:28:43;;;;;;;23.20;14.60;;;;;;;1.86;78.95;95473.48;106722;1275;25558;-69
2023/03/04 07:31:27;;;;;;;16.00;9.70;;;;;;;2.01;78.64;95473.33;106712;1275;22518;-69
2023/03/04 07:34:01;;;;;;;22.30;13.00;;;;;;;2.17;77.96;95473.36;106635;1266;22537;-69
2023/03/04 07:36:31;;;;;;;29.70;16.90;;;;;;;2.32;77.03;95469.71;106765;1275;22632;-69
2023/03/04 07:39:00;;;;;;;27.00;14.20;;;;;;;2.51;77.93;95469.73;107033;1275;22666;-69
2023/03/04 07:41:29;;;;;;;23.50;14.10;;;;;;;2.70;78.12;95465.58;106985;1275;22519;-69
2023/03/04 07:43:58;;;;;;;21.00;12.60;;;;;;;2.87;77.95;95460.36;106357;1275;616390;-69
2023/03/04 07:46:26;;;;;;;19.90;11.00;;;;;;;3.04;76.26;95460.84;106737;1275;24228;-69
2023/03/04 07:48:55;;;;;;;16.90;11.00;;;;;;;3.19;75.70;95451.57;106669;1275;25294;-68
2023/03/04 07:51:25;;;;;;;25.00;17.30;;;;;;;3.34;76.05;95451.34;106668;1275;24215;-69
2023/03/04 07:53:59;;;;;;;25.90;15.60;;;;;;;3.49;75.67;95447.09;106929;1275;22539;-69
2023/03/04 07:56:30;;;;;;;17.40;10.90;;;;;;;3.64;73.59;95441.96;106694;1275;23938;-69
2023/03/04 07:59:00;;;;;;;16.00;9.50;;;;;;;3.78;74.19;95438.91;106690;1275;22520;-69
2023/03/04 08:01:31;;;;;;;19.10;11.80;;;;;;;3.91;73.43;95436.89;106727;1275;22556;-69
2023/03/04 08:04:00;;;;;;;17.60;10.60;;;;;;;4.07;72.76;95427.90;106719;1275;22687;-69
2023/03/04 08:06:28;;;;;;;13.10;8.90;;;;;;;4.26;71.73;95429.88;106640;1275;25399;-69
2023/03/04 08:09:02;;;;;;;16.70;9.30;;;;;;;4.44;69.87;95426.45;106802;1275;22526;-69
2023/03/04 08:11:33;;;;;;;18.00;9.90;;;;;;;4.61;70.08;95424.73;106561;1275;24067;-69
2023/03/04 08:14:02;;;;;;;15.00;8.70;;;;;;;4.78;69.28;95423.36;106719;1275;25333;-69
2023/03/04 08:16:30;;;;;;;12.30;7.60;;;;;;;4.95;68.19;95420.94;106770;1275;22641;-68
2023/03/04 08:19:01;;;;;;;11.70;6.80;;;;;;;5.08;68.43;95423.73;106666;1275;22514;-69
2023/03/04 08:21:29;;;;;;;8.70;5.50;;;;;;;5.18;68.57;95421.63;106793;1275;25440;-69
2023/03/04 08:24:01;;;;;;;12.90;6.10;;;;;;;5.30;68.76;95419.89;106766;1275;22515;-70
2023/03/04 08:26:33;;;;;;;9.30;5.10;;;;;;;5.46;68.89;95419.67;106744;1275;22518;-69
2023/03/04 08:29:04;;;;;;;16.80;11.40;;;;;;;5.61;66.92;95418.44;106707;1275;22602;-69
2023/03/04 08:31:32;;;;;;;10.90;7.10;;;;;;;5.77;66.79;95415.95;106735;1275;22544;-69
2023/03/04 08:34:03;;;;;;;10.20;6.50;;;;;;;5.91;65.73;95413.46;106626;1275;25572;-71
2023/03/04 08:36:31;;;;;;;11.70;6.60;;;;;;;6.00;64.75;95412.23;106622;1275;24066;-70
2023/03/04 08:38:59;;;;;;;14.00;6.50;;;;;;;6.14;65.52;95409.75;106603;1275;24231;-69
2023/03/04 08:41:28;;;;;;;8.60;5.80;;;;;;;6.25;64.40;95409.88;106650;1275;24037;-69
2023/03/04 08:43:56;;;;;;;11.20;6.40;;;;;;;6.35;61.58;95403.51;106685;1275;25214;-70
2023/03/04 08:46:24;;;;;;;11.70;6.30;;;;;;;6.41;62.23;95401.73;106758;1275;22656;-71
2023/03/04 08:48:53;;;;;;;8.70;4.50;;;;;;;6.45;59.44;95400.67;106823;1275;25498;-72
2023/03/04 08:51:21;;;;;;;9.30;3.90;;;;;;;6.47;59.31;95396.83;106701;1275;25367;-70
2023/03/04 08:53:50;;;;;;;9.60;3.90;;;;;;;6.58;60.88;95392.91;107066;1272;22619;-71
2023/03/04 08:56:18;;;;;;;14.30;4.40;;;;;;;6.70;60.28;95386.54;106754;1275;22517;-71
2023/03/04 08:58:46;;;;;;;12.10;6.50;;;;;;;6.79;58.52;95382.45;107076;1275;23031;-70
2023/03/04 09:01:15;;;;;;;7.30;3.50;;;;;;;6.89;58.50;95383.59;106559;1275;23173;-71
2023/03/04 09:03:43;;;;;;;10.40;3.70;;;;;;;7.09;59.52;95383.44;106705;1275;22725;-71
2023/03/04 09:06:15;;;;;;;7.60;3.30;;;;;;;7.26;57.42;95380.66;106673;1275;22800;-73
2023/03/04 09:08:44;;;;;;;9.10;3.60;;;;;;;7.38;56.27;95382.30;106606;1275;24277;-68
2023/03/04 09:11:13;;;;;;;14.50;10.50;;;;;;;7.45;55.29;95380.14;106772;1275;24243;-65
2023/03/04 09:13:41;;;;;;;6.10;4.20;;;;;;;7.62;56.53;95375.75;106665;1275;24240;-65
2023/03/04 09:16:11;;;;;;;10.10;4.50;;;;;;;7.80;55.52;95375.90;106748;1275;22518;-65
2023/03/04 09:18:41;;;;;;;8.80;4.00;;;;;;;7.80;55.37;95373.10;106733;1275;22521;-66
2023/03/04 09:21:10;;;;;;;9.70;4.30;;;;;;;7.91;55.79;95374.73;106661;1275;22632;-65
2023/03/04 09:23:38;;;;;;;6.30;3.80;;;;;;;8.01;54.12;95374.61;106791;1275;22677;-65
2023/03/04 09:26:20;;;;;;;9.80;4.50;;;;;;;8.19;54.94;95370.71;106680;1275;26676;-65
2023/03/04 09:28:51;;;;;;;6.10;4.10;;;;;;;8.42;54.68;95371.30;106851;1275;24246;-65
2023/03/04 09:31:20;;;;;;;10.10;5.40;;;;;;;8.53;53.91;95367.46;106673;1275;22627;-66
2023/03/04 09:33:50;;;;;;;6.80;3.50;;;;;;;8.34;53.18;95374.20;106745;1275;24999;-65
2023/03/04 09:36:19;;;;;;;8.00;3.70;;;;;;;8.21;53.19;95368.93;106680;1275;22591;-65
2023/03/04 09:38:47;;;;;;;9.90;4.90;;;;;;;8.23;53.83;95368.02;106662;1275;23018;-65
2023/03/04 09:41:20;;;;;;;7.30;3.90;;;;;;;8.41;55.28;95369.20;106629;1275;22695;-65
2023/03/04 09:43:51;;;;;;;10.70;3.70;;;;;;;8.46;53.16;95370.55;106593;1273;22642;-66
2023/03/04 09:46:32;;;;;;;10.00;4.60;;;;;;;8.46;54.48;95363.38;106703;1275;22511;-65
2023/03/04 09:49:01;;;;;;;10.20;6.60;;;;;;;8.50;53.37;95365.93;106730;1275;25220;-64
2023/03/04 09:51:35;;;;;;;6.20;4.50;;;;;;;8.38;51.79;95362.94;106687;1275;22514;-65
2023/03/04 09:54:14;;;;;;;7.70;4.00;;;;;;;8.24;52.58;95358.90;106734;1275;24213;-65
2023/03/04 09:56:43;;;;;;;7.60;4.40;;;;;;;8.18;52.46;95353.71;106706;1263;24231;-65
2023/03/04 09:59:23;;;;;;;8.70;4.10;;;;;;;8.29;53.98;95345.52;106799;1274;22521;-65
2023/03/04 10:01:57;;;;;;;8.30;4.70;;;;;;;8.44;52.61;95344.63;106746;1274;22527;-65
2023/03/04 10:04:58;;;;;;;11.70;6.10;;;;;;;8.56;52.05;95339.73;106649;1274;22517;-65
2023/03/04 10:07:33;;;;;;;9.80;5.90;;;;;;;8.80;52.26;95327.61;106578;1274;22786;-65
2023/03/04 10:10:17;;;;;;;10.90;5.00;;;;;;;8.99;51.33;95326.09;106762;1274;22570;-65
2023/03/04 10:12:48;;;;;;;10.60;5.30;;;;;;;9.09;50.33;95321.70;106761;1274;22616;-65
2023/03/04 10:15:28;;;;;;;12.20;5.90;;;;;;;9.20;50.72;95315.73;106758;1274;25060;-65
2023/03/04 10:18:11;;;;;;;9.10;4.80;;;;;;;9.38;50.66;95309.59;107036;1274;24221;-65
2023/03/04 10:20:52;;;;;;;23.70;13.70;;;;;;;9.47;49.86;95306.09;106773;1274;24449;-65
2023/03/04 10:23:24;;;;;;;10.20;5.60;;;;;;;9.51;49.15;95300.56;106725;1274;22633;-65
2023/03/04 10:25:53;;;;;;;21.10;12.00;;;;;;;9.72;50.35;95304.20;106743;1274;25211;-65
2023/03/04 10:28:27;;;;;;;12.40;6.60;;;;;;;9.85;49.13;95305.17;106829;1274;22737;-65
2023/03/04 10:31:01;;;;;;;14.60;5.90;;;;;;;9.79;47.58;95303.53;106805;1253;22642;-65
2023/03/04 10:33:34;;;;;;;11.10;6.50;;;;;;;9.68;47.79;95299.00;106806;1275;24527;-64
2023/03/04 10:36:26;;;;;;;11.60;5.30;;;;;;;9.64;47.51;95291.72;106754;1274;25210;-65
2023/03/04 10:39:34;;;;;;;11.00;5.50;;;;;;;9.67;47.03;95295.00;107092;1274;22532;-65
2023/03/04 10:42:14;;;;;;;14.40;7.30;;;;;;;9.56;48.27;95283.80;106786;1274;22526;-65
2023/03/04 10:45:03;;;;;;;11.20;5.80;;;;;;;9.62;47.80;95286.30;106760;1274;22518;-65
2023/03/04 10:47:33;;;;;;;9.00;5.80;;;;;;;9.69;47.79;95287.93;106758;1274;22533;-65
2023/03/04 10:50:04;;;;;;;8.00;4.80;;;;;;;9.75;46.77;95289.38;106800;1274;25468;-65
2023/03/04 10:52:40;;;;;;;10.30;6.50;;;;;;;9.78;45.86;95280.02;106748;1274;24323;-65
2023/03/04 10:55:24;;;;;;;13.90;10.60;;;;;;;9.93;46.46;95277.77;106805;1274;24225;-65
2023/03/04 10:58:04;;;;;;;14.20;6.50;;;;;;;10.45;46.61;95273.66;106736;1274;23916;-65
2023/03/04 11:00:35;;;;;;;12.90;8.10;;;;;;;10.78;44.67;95273.77;106700;1274;22564;-65
2023/03/04 11:03:27;;;;;;;13.70;8.30;;;;;;;11.04;43.97;95268.19;106764;1274;24273;-65
2023/03/04 11:06:20;;;;;;;14.70;8.80;;;;;;;11.49;44.00;95260.13;106705;1274;22532;-65
2023/03/04 11:08:57;;;;;;;12.60;8.70;;;;;;;11.79;42.42;95255.77;106661;1274;22731;-66
2023/03/04 11:11:41;;;;;;;15.20;9.50;;;;;;;12.17;42.65;95258.55;106725;1274;22636;-66
2023/03/04 11:14:28;;;;;;;27.40;20.00;;;;;;;12.48;42.67;95249.85;106769;1274;24249;-64
2023/03/04 11:17:22;;;;;;;22.60;17.80;;;;;;;12.95;41.26;95254.66;106779;1270;22579;-63
2023/03/04 11:19:56;;;;;;;;;;;;;;;13.03;39.40;95247.35;106639;1274;25373;-64
2023/03/04 11:22:26;;;;;;;13.40;9.30;;;;;;;13.12;40.05;95245.81;106706;1274;22520;-64
2023/03/04 11:25:00;;;;;;;11.00;8.30;;;;;;;13.46;40.11;95233.89;106780;1274;25420;-64
2023/03/04 11:27:43;;;;;;;17.30;9.00;;;;;;;13.72;39.09;95235.95;106792;1274;25529;-65
2023/03/04 11:30:17;;;;;;;;;;;;;;;13.86;38.85;95228.02;106698;1274;22730;-65
2023/03/04 11:32:48;;;;;;;10.20;8.40;;;;;;;13.94;38.36;95224.69;106838;1274;24624;-64